createdAt,value
2023-06-19T00:00:27.161Z,1007.49
2023-06-19T00:01:27.289Z,1007.45
2023-06-19T00:02:27.480Z,1007.44
2023-06-19T00:03:27.532Z,1007.47
2023-06-19T00:04:27.930Z,1007.45
2023-06-19T00:05:27.681Z,1007.46
2023-06-19T00:06:27.767Z,1007.43
2023-06-19T00:07:27.854Z,1007.45
2023-06-19T00:08:27.945Z,1007.44
2023-06-19T00:09:28.013Z,1007.48
2023-06-19T00:10:28.210Z,1007.50
2023-06-19T00:11:28.269Z,1007.48
2023-06-19T00:12:28.364Z,1007.46
2023-06-19T00:13:28.442Z,1007.43
2023-06-19T00:14:28.657Z,1007.39
2023-06-19T00:15:28.630Z,1007.43
2023-06-19T00:16:28.703Z,1007.44
2023-06-19T00:17:28.803Z,1007.47
2023-06-19T00:18:28.887Z,1007.48
2023-06-19T00:19:28.970Z,1007.49
2023-06-19T00:20:29.054Z,1007.47
2023-06-19T00:21:29.149Z,1007.49
2023-06-19T00:22:29.231Z,1007.52
2023-06-19T00:23:29.298Z,1007.47
2023-06-19T00:24:29.373Z,1007.49
2023-06-19T00:25:29.436Z,1007.51
2023-06-19T00:26:29.505Z,1007.48
2023-06-19T00:27:29.609Z,1007.49
2023-06-19T00:28:29.716Z,1007.49
2023-06-19T00:29:29.764Z,1007.51
2023-06-19T00:30:29.863Z,1007.55
2023-06-19T00:31:29.929Z,1007.52
2023-06-19T00:32:30.235Z,1007.49
2023-06-19T00:33:30.230Z,1007.45
2023-06-19T00:34:30.328Z,1007.50
2023-06-19T00:35:30.415Z,1007.51
2023-06-19T00:36:30.495Z,1007.50
2023-06-19T00:37:30.589Z,1007.48
2023-06-19T00:38:30.687Z,1007.52
2023-06-19T00:39:30.772Z,1007.50
2023-06-19T00:40:30.880Z,1007.49
2023-06-19T00:41:30.980Z,1007.48
2023-06-19T00:42:31.087Z,1007.50
2023-06-19T00:43:31.158Z,1007.51
2023-06-19T00:44:31.273Z,1007.52
2023-06-19T00:45:31.372Z,1007.54
2023-06-19T00:46:31.461Z,1007.51
2023-06-19T00:47:31.533Z,1007.54
2023-06-19T00:48:31.619Z,1007.52
2023-06-19T00:49:31.691Z,1007.54
2023-06-19T00:50:31.797Z,1007.51
2023-06-19T00:51:31.865Z,1007.53
2023-06-19T00:52:31.982Z,1007.50
2023-06-19T00:53:32.032Z,1007.49
2023-06-19T00:54:32.120Z,1007.51
2023-06-19T00:55:32.221Z,1007.51
2023-06-19T00:56:32.307Z,1007.53
2023-06-19T00:57:32.392Z,1007.49
2023-06-19T00:58:33.101Z,1007.49
2023-06-19T00:59:32.657Z,1007.49
2023-06-19T01:00:32.761Z,1007.49
2023-06-19T01:01:32.876Z,1007.50
2023-06-19T01:02:33.054Z,1007.47
2023-06-19T01:03:33.103Z,1007.45
2023-06-19T01:04:33.113Z,1007.41
2023-06-19T01:05:33.165Z,1007.40
2023-06-19T01:06:33.252Z,1007.44
2023-06-19T01:07:33.329Z,1007.44
2023-06-19T01:08:33.413Z,1007.42
2023-06-19T01:09:33.498Z,1007.45
2023-06-19T01:10:33.606Z,1007.45
2023-06-19T01:11:33.685Z,1007.45
2023-06-19T01:12:33.762Z,1007.41
2023-06-19T01:13:33.881Z,1007.40
2023-06-19T01:14:33.976Z,1007.40
2023-06-19T01:15:34.055Z,1007.36
2023-06-19T01:16:34.202Z,1007.36
2023-06-19T01:17:34.443Z,1007.35
2023-06-19T01:18:34.393Z,1007.31
2023-06-19T01:19:34.495Z,1007.32
2023-06-19T01:20:34.616Z,1007.31
2023-06-19T01:21:34.704Z,1007.32
2023-06-19T01:22:34.790Z,1007.34
2023-06-19T01:23:34.862Z,1007.33
2023-06-19T01:24:35.094Z,1007.32
2023-06-19T01:25:35.072Z,1007.29
2023-06-19T01:26:35.157Z,1007.34
2023-06-19T01:27:35.244Z,1007.31
2023-06-19T01:28:35.326Z,1007.33
2023-06-19T01:29:35.415Z,1007.34
2023-06-19T01:30:35.545Z,1007.32
2023-06-19T01:31:35.651Z,1007.31
2023-06-19T01:32:35.785Z,1007.32
2023-06-19T01:33:35.800Z,1007.30
2023-06-19T01:34:37.945Z,1007.26
2023-06-19T01:35:36.030Z,1007.28
2023-06-19T01:36:36.218Z,1007.31
2023-06-19T01:37:36.338Z,1007.30
2023-06-19T01:38:36.403Z,1007.27
2023-06-19T01:39:36.481Z,1007.26
2023-06-19T01:40:36.566Z,1007.28
2023-06-19T01:41:36.625Z,1007.26
2023-06-19T01:42:36.730Z,1007.26
2023-06-19T01:43:36.794Z,1007.27
2023-06-19T01:44:36.884Z,1007.28
2023-06-19T01:45:36.964Z,1007.25
2023-06-19T01:46:37.081Z,1007.23
2023-06-19T01:47:37.130Z,1007.22
2023-06-19T01:48:37.211Z,1007.21
2023-06-19T01:49:37.280Z,1007.18
2023-06-19T01:50:37.481Z,1007.17
2023-06-19T01:51:45.090Z,1007.11
2023-06-19T01:52:37.720Z,1007.11
2023-06-19T01:53:37.857Z,1007.03
2023-06-19T01:54:37.963Z,1007.03
2023-06-19T01:55:38.083Z,1007.05
2023-06-19T01:56:38.142Z,1007.06
2023-06-19T01:57:38.246Z,1007.06
2023-06-19T01:58:38.347Z,1007.05
2023-06-19T01:59:38.444Z,1007.06
2023-06-19T02:00:39.131Z,1007.04
2023-06-19T02:01:38.659Z,1007.04
2023-06-19T02:02:39.033Z,1007.04
2023-06-19T02:03:38.914Z,1007.00
2023-06-19T02:04:39.006Z,1007.00
2023-06-19T02:05:39.105Z,1007.02
2023-06-19T02:06:39.162Z,1007.06
2023-06-19T02:07:39.266Z,1007.01
2023-06-19T02:08:39.349Z,1007.00
2023-06-19T02:09:39.435Z,1006.99
2023-06-19T02:10:39.550Z,1006.94
2023-06-19T02:11:39.644Z,1006.94
2023-06-19T02:12:39.736Z,1006.93
2023-06-19T02:13:40.526Z,1006.92
2023-06-19T02:14:39.872Z,1006.90
2023-06-19T02:15:40.004Z,1006.87
2023-06-19T02:16:40.114Z,1006.87
2023-06-19T02:17:40.234Z,1006.87
2023-06-19T02:18:40.278Z,1006.86
2023-06-19T02:19:40.367Z,1006.83
2023-06-19T02:20:40.453Z,1006.84
2023-06-19T02:21:40.526Z,1006.85
2023-06-19T02:22:40.604Z,1006.81
2023-06-19T02:23:40.681Z,1006.83
2023-06-19T02:24:41.032Z,1006.80
2023-06-19T02:25:40.838Z,1006.79
2023-06-19T02:26:40.946Z,1006.81
2023-06-19T02:27:41.041Z,1006.80
2023-06-19T02:28:41.124Z,1006.77
2023-06-19T02:29:41.234Z,1006.75
2023-06-19T02:30:41.317Z,1006.77
2023-06-19T02:31:41.460Z,1006.80
2023-06-19T02:32:41.600Z,1006.80
2023-06-19T02:33:41.700Z,1006.82
2023-06-19T02:34:41.803Z,1006.77
2023-06-19T02:35:41.914Z,1006.80
2023-06-19T02:36:42.007Z,1006.80
2023-06-19T02:37:42.104Z,1006.79
2023-06-19T02:38:42.198Z,1006.77
2023-06-19T02:39:42.305Z,1006.75
2023-06-19T02:40:42.424Z,1006.77
2023-06-19T02:41:42.530Z,1006.76
2023-06-19T02:42:42.630Z,1006.75
2023-06-19T02:43:42.717Z,1006.75
2023-06-19T02:44:42.785Z,1006.75
2023-06-19T02:45:42.935Z,1006.75
2023-06-19T02:46:43.007Z,1006.76
2023-06-19T02:47:43.191Z,1006.77
2023-06-19T02:48:43.149Z,1006.80
2023-06-19T02:49:43.265Z,1006.78
2023-06-19T02:50:44.342Z,1006.78
2023-06-19T02:51:43.476Z,1006.79
2023-06-19T02:52:43.546Z,1006.80
2023-06-19T02:53:43.648Z,1006.78
2023-06-19T02:54:43.741Z,1006.74
2023-06-19T02:55:43.848Z,1006.75
2023-06-19T02:56:43.934Z,1006.77
2023-06-19T02:57:44.063Z,1006.73
2023-06-19T02:58:44.159Z,1006.76
2023-06-19T02:59:44.260Z,1006.75
2023-06-19T03:00:44.352Z,1006.76
2023-06-19T03:01:44.548Z,1006.76
2023-06-19T03:02:44.697Z,1006.76
2023-06-19T03:03:44.702Z,1006.72
2023-06-19T03:04:44.758Z,1006.76
2023-06-19T03:05:44.908Z,1006.73
2023-06-19T03:06:45.047Z,1006.73
2023-06-19T03:07:45.158Z,1006.71
2023-06-19T03:08:45.276Z,1006.71
2023-06-19T03:09:45.385Z,1006.74
2023-06-19T03:10:45.459Z,1006.70
2023-06-19T03:11:45.555Z,1006.74
2023-06-19T03:12:45.646Z,1006.74
2023-06-19T03:13:45.740Z,1006.71
2023-06-19T03:14:45.822Z,1006.72
2023-06-19T03:15:45.942Z,1006.76
2023-06-19T03:16:46.062Z,1006.73
2023-06-19T03:17:46.161Z,1006.76
2023-06-19T03:18:46.397Z,1006.75
2023-06-19T03:19:46.329Z,1006.73
2023-06-19T03:20:46.423Z,1006.74
2023-06-19T03:21:46.506Z,1006.78
2023-06-19T03:22:46.633Z,1006.80
2023-06-19T03:23:46.755Z,1006.86
2023-06-19T03:24:46.884Z,1006.86
2023-06-19T03:25:46.960Z,1006.90
2023-06-19T03:26:47.028Z,1006.89
2023-06-19T03:27:47.126Z,1006.92
2023-06-19T03:28:47.196Z,1006.96
2023-06-19T03:29:47.329Z,1006.90
2023-06-19T03:30:47.375Z,1006.95
2023-06-19T03:31:47.499Z,1006.93
2023-06-19T03:32:47.615Z,1006.98
2023-06-19T03:33:47.667Z,1006.96
2023-06-19T03:34:47.749Z,1006.96
2023-06-19T03:35:47.822Z,1006.98
2023-06-19T03:36:47.931Z,1006.94
2023-06-19T03:37:48.005Z,1006.97
2023-06-19T03:38:48.127Z,1006.93
2023-06-19T03:39:48.224Z,1006.93
2023-06-19T03:40:48.306Z,1006.99
2023-06-19T03:41:48.437Z,1006.98
2023-06-19T03:42:48.541Z,1006.96
2023-06-19T03:43:48.629Z,1006.98
2023-06-19T03:44:48.715Z,1006.99
2023-06-19T03:45:48.831Z,1006.98
2023-06-19T03:46:48.958Z,1006.99
2023-06-19T03:47:49.090Z,1007.04
2023-06-19T03:48:49.140Z,1006.99
2023-06-19T03:49:49.219Z,1007.00
2023-06-19T03:50:49.298Z,1007.02
2023-06-19T03:51:49.365Z,1007.03
2023-06-19T03:52:49.462Z,1007.03
2023-06-19T03:53:49.550Z,1007.04
2023-06-19T03:54:49.601Z,1006.98
2023-06-19T03:55:49.702Z,1006.97
2023-06-19T03:56:49.783Z,1006.95
2023-06-19T03:57:49.902Z,1006.93
2023-06-19T03:58:49.996Z,1006.90
2023-06-19T03:59:50.053Z,1006.88
2023-06-19T04:00:50.139Z,1006.86
2023-06-19T04:01:51.384Z,1006.87
2023-06-19T04:02:50.575Z,1006.91
2023-06-19T04:03:50.482Z,1006.89
2023-06-19T04:04:50.558Z,1006.90
2023-06-19T04:05:51.286Z,1006.93
2023-06-19T04:06:50.775Z,1006.90
2023-06-19T04:07:50.908Z,1006.91
2023-06-19T04:08:50.999Z,1006.88
2023-06-19T04:09:51.079Z,1006.86
2023-06-19T04:10:51.148Z,1006.81
2023-06-19T04:11:52.180Z,1006.76
2023-06-19T04:12:51.370Z,1006.75
2023-06-19T04:13:51.458Z,1006.70
2023-06-19T04:14:51.559Z,1006.69
2023-06-19T04:15:51.742Z,1006.67
2023-06-19T04:16:51.771Z,1006.68
2023-06-19T04:17:51.898Z,1006.69
2023-06-19T04:18:51.977Z,1006.71
2023-06-19T04:19:52.062Z,1006.74
2023-06-19T04:20:52.151Z,1006.74
2023-06-19T04:21:52.245Z,1006.74
2023-06-19T04:22:52.329Z,1006.74
2023-06-19T04:23:52.477Z,1006.72
2023-06-19T04:24:52.548Z,1006.74
2023-06-19T04:25:52.645Z,1006.74
2023-06-19T04:26:52.731Z,1006.76
2023-06-19T04:27:52.835Z,1006.80
2023-06-19T04:28:52.956Z,1006.81
2023-06-19T04:29:53.031Z,1006.81
2023-06-19T04:30:53.105Z,1006.80
2023-06-19T04:31:53.274Z,1006.84
2023-06-19T04:32:53.423Z,1006.87
2023-06-19T04:33:53.491Z,1006.87
2023-06-19T04:34:53.603Z,1006.86
2023-06-19T04:35:53.660Z,1006.86
2023-06-19T04:36:53.751Z,1006.88
2023-06-19T04:37:53.881Z,1006.88
2023-06-19T04:38:53.953Z,1006.87
2023-06-19T04:39:54.029Z,1006.87
2023-06-19T04:40:54.092Z,1006.89
2023-06-19T04:41:54.269Z,1006.90
2023-06-19T04:42:54.477Z,1006.89
2023-06-19T04:43:54.451Z,1006.90
2023-06-19T04:44:54.548Z,1006.92
2023-06-19T04:45:54.734Z,1006.97
2023-06-19T04:46:54.764Z,1006.94
2023-06-19T04:47:54.880Z,1006.95
2023-06-19T04:48:54.988Z,1006.95
2023-06-19T04:49:55.068Z,1006.93
2023-06-19T04:50:55.139Z,1006.92
2023-06-19T04:51:55.223Z,1006.92
2023-06-19T04:52:55.314Z,1006.94
2023-06-19T04:53:55.521Z,1006.96
2023-06-19T04:54:56.174Z,1006.94
2023-06-19T04:55:55.648Z,1006.97
2023-06-19T04:56:55.690Z,1006.97
2023-06-19T04:57:55.794Z,1006.98
2023-06-19T04:58:55.871Z,1006.96
2023-06-19T04:59:56.540Z,1006.99
2023-06-19T05:00:56.187Z,1007.00
2023-06-19T05:01:56.300Z,1007.02
2023-06-19T05:02:56.438Z,1007.01
2023-06-19T05:03:56.541Z,1007.05
2023-06-19T05:04:56.569Z,1007.03
2023-06-19T05:05:56.692Z,1007.06
2023-06-19T05:06:56.722Z,1007.10
2023-06-19T05:07:56.819Z,1007.11
2023-06-19T05:08:56.897Z,1007.10
2023-06-19T05:09:56.987Z,1007.12
2023-06-19T05:10:57.179Z,1007.09
2023-06-19T05:11:57.291Z,1007.12
2023-06-19T05:12:57.455Z,1007.15
2023-06-19T05:13:57.499Z,1007.13
2023-06-19T05:14:57.580Z,1007.15
2023-06-19T05:15:57.721Z,1007.17
2023-06-19T05:16:57.827Z,1007.15
2023-06-19T05:17:58.021Z,1007.17
2023-06-19T05:18:57.987Z,1007.19
2023-06-19T05:19:58.086Z,1007.17
2023-06-19T05:20:58.164Z,1007.20
2023-06-19T05:21:58.220Z,1007.19
2023-06-19T05:22:58.364Z,1007.19
2023-06-19T05:23:58.494Z,1007.19
2023-06-19T05:24:58.570Z,1007.21
2023-06-19T05:25:58.739Z,1007.21
2023-06-19T05:26:58.777Z,1007.18
2023-06-19T05:27:58.863Z,1007.14
2023-06-19T05:28:58.961Z,1007.12
2023-06-19T05:29:59.022Z,1007.16
2023-06-19T05:30:59.213Z,1007.16
2023-06-19T05:31:59.272Z,1007.20
2023-06-19T05:32:59.421Z,1007.19
2023-06-19T05:33:59.492Z,1007.22
2023-06-19T05:34:59.654Z,1007.21
2023-06-19T05:35:59.711Z,1007.18
2023-06-19T05:36:59.792Z,1007.17
2023-06-19T05:37:59.916Z,1007.19
2023-06-19T05:39:00.031Z,1007.16
2023-06-19T05:40:00.146Z,1007.18
2023-06-19T05:41:00.224Z,1007.18
2023-06-19T05:42:00.284Z,1007.19
2023-06-19T05:43:00.484Z,1007.20
2023-06-19T05:44:00.608Z,1007.16
2023-06-19T05:45:00.632Z,1007.11
2023-06-19T05:46:00.778Z,1007.10
2023-06-19T05:47:00.878Z,1007.11
2023-06-19T05:48:01.082Z,1007.12
2023-06-19T05:49:01.030Z,1007.13
2023-06-19T05:50:01.126Z,1007.12
2023-06-19T05:51:01.187Z,1007.15
2023-06-19T05:52:01.257Z,1007.18
2023-06-19T05:53:01.344Z,1007.22
2023-06-19T05:54:01.478Z,1007.17
2023-06-19T05:55:01.535Z,1007.12
2023-06-19T05:56:01.607Z,1007.12
2023-06-19T05:57:01.686Z,1007.14
2023-06-19T05:58:01.845Z,1007.08
2023-06-19T05:59:01.805Z,1007.07
2023-06-19T06:00:01.900Z,1007.10
2023-06-19T06:01:01.999Z,1007.05
2023-06-19T06:02:02.036Z,1007.06
2023-06-19T06:03:02.152Z,1007.03
2023-06-19T06:04:02.252Z,1007.05
2023-06-19T06:05:02.307Z,1007.04
2023-06-19T06:06:02.354Z,1007.01
2023-06-19T06:07:02.493Z,1007.03
2023-06-19T06:08:02.589Z,1007.03
2023-06-19T06:09:02.654Z,1007.04
2023-06-19T06:10:02.711Z,1007.03
2023-06-19T06:11:02.852Z,1007.03
2023-06-19T06:12:02.942Z,1007.02
2023-06-19T06:13:02.984Z,1007.03
2023-06-19T06:14:03.040Z,1007.04
2023-06-19T06:15:03.120Z,1007.04
2023-06-19T06:16:03.203Z,1007.05
2023-06-19T06:17:03.309Z,1007.03
2023-06-19T06:18:03.414Z,1007.06
2023-06-19T06:19:03.454Z,1007.08
2023-06-19T06:20:03.530Z,1007.11
2023-06-19T06:21:03.585Z,1007.08
2023-06-19T06:22:03.752Z,1007.09
2023-06-19T06:23:03.809Z,1007.14
2023-06-19T06:24:03.909Z,1007.14
2023-06-19T06:25:03.959Z,1007.14
2023-06-19T06:26:04.278Z,1007.21
2023-06-19T06:27:04.073Z,1007.16
2023-06-19T06:28:04.152Z,1007.18
2023-06-19T06:29:04.217Z,1007.18
2023-06-19T06:30:04.301Z,1007.21
2023-06-19T06:31:04.404Z,1007.22
2023-06-19T06:32:04.523Z,1007.21
2023-06-19T06:33:04.705Z,1007.18
2023-06-19T06:34:04.637Z,1007.18
2023-06-19T06:35:04.697Z,1007.17
2023-06-19T06:36:06.499Z,1007.20
2023-06-19T06:37:06.885Z,1007.19
2023-06-19T06:38:04.923Z,1007.20
2023-06-19T06:39:04.998Z,1007.19
2023-06-19T06:40:05.042Z,1007.20
2023-06-19T06:41:05.125Z,1007.20
2023-06-19T06:42:05.180Z,1007.22
2023-06-19T06:43:06.222Z,1007.25
2023-06-19T06:44:05.266Z,1007.28
2023-06-19T06:45:05.370Z,1007.32
2023-06-19T06:46:05.409Z,1007.30
2023-06-19T06:47:05.502Z,1007.28
2023-06-19T06:48:05.816Z,1007.25
2023-06-19T06:49:05.623Z,1007.26
2023-06-19T06:50:05.710Z,1007.22
2023-06-19T06:51:05.793Z,1007.26
2023-06-19T06:52:05.833Z,1007.22
2023-06-19T06:53:05.949Z,1007.24
2023-06-19T06:54:06.007Z,1007.26
2023-06-19T06:55:06.067Z,1007.27
2023-06-19T06:56:06.129Z,1007.29
2023-06-19T06:57:06.192Z,1007.31
2023-06-19T06:58:06.265Z,1007.32
2023-06-19T06:59:06.938Z,1007.31
2023-06-19T07:00:06.440Z,1007.30
2023-06-19T07:01:06.576Z,1007.30
2023-06-19T07:02:06.643Z,1007.28
2023-06-19T07:03:06.718Z,1007.26
2023-06-19T07:04:06.797Z,1007.27
2023-06-19T07:05:06.896Z,1007.26
2023-06-19T07:06:06.967Z,1007.30
2023-06-19T07:07:07.018Z,1007.29
2023-06-19T07:08:07.079Z,1007.30
2023-06-19T07:09:07.156Z,1007.30
2023-06-19T07:10:07.305Z,1007.30
2023-06-19T07:11:07.342Z,1007.29
2023-06-19T07:12:07.406Z,1007.29
2023-06-19T07:13:07.573Z,1007.32
2023-06-19T07:14:07.581Z,1007.30
2023-06-19T07:15:07.637Z,1007.33
2023-06-19T07:16:07.702Z,1007.27
2023-06-19T07:17:07.884Z,1007.27
2023-06-19T07:18:07.854Z,1007.30
2023-06-19T07:19:07.916Z,1007.26
2023-06-19T07:20:07.989Z,1007.25
2023-06-19T07:21:08.138Z,1007.25
2023-06-19T07:22:08.144Z,1007.28
2023-06-19T07:23:08.284Z,1007.31
2023-06-19T07:24:08.427Z,1007.30
2023-06-19T07:25:08.389Z,1007.33
2023-06-19T07:26:08.432Z,1007.36
2023-06-19T07:27:08.570Z,1007.36
2023-06-19T07:28:08.517Z,1007.37
2023-06-19T07:29:08.711Z,1007.41
2023-06-19T07:30:09.770Z,1007.39
2023-06-19T07:31:08.783Z,1007.39
2023-06-19T07:32:08.989Z,1007.30
2023-06-19T07:33:08.990Z,1007.27
2023-06-19T07:34:09.063Z,1007.30
2023-06-19T07:35:09.100Z,1007.31
2023-06-19T07:36:09.145Z,1007.32
2023-06-19T07:37:09.216Z,1007.34
2023-06-19T07:38:09.288Z,1007.35
2023-06-19T07:39:09.330Z,1007.37
2023-06-19T07:40:09.390Z,1007.39
2023-06-19T07:41:09.435Z,1007.37
2023-06-19T07:42:09.526Z,1007.37
2023-06-19T07:43:09.635Z,1007.37
2023-06-19T07:44:09.649Z,1007.39
2023-06-19T07:45:09.684Z,1007.43
2023-06-19T07:46:09.820Z,1007.41
2023-06-19T07:47:09.849Z,1007.39
2023-06-19T07:48:09.983Z,1007.40
2023-06-19T07:49:09.990Z,1007.40
2023-06-19T07:50:10.091Z,1007.39
2023-06-19T07:51:10.121Z,1007.40
2023-06-19T07:52:17.142Z,1007.36
2023-06-19T07:53:10.179Z,1007.37
2023-06-19T07:54:12.923Z,1007.34
2023-06-19T07:55:12.968Z,1007.32
2023-06-19T07:56:10.346Z,1007.34
2023-06-19T07:57:10.366Z,1007.36
2023-06-19T07:58:10.511Z,1007.34
2023-06-19T07:59:10.505Z,1007.31
2023-06-19T08:00:10.536Z,1007.31
2023-06-19T08:01:10.576Z,1007.37
2023-06-19T08:02:10.676Z,1007.35
2023-06-19T08:03:10.838Z,1007.37
2023-06-19T08:04:10.778Z,1007.33
2023-06-19T08:05:10.931Z,1007.32
2023-06-19T08:06:10.855Z,1007.31
2023-06-19T08:07:10.906Z,1007.35
2023-06-19T08:08:10.948Z,1007.35
2023-06-19T08:09:10.988Z,1007.33
2023-06-19T08:10:28.032Z,1007.36
2023-06-19T08:11:12.033Z,1007.35
2023-06-19T08:12:11.069Z,1007.39
2023-06-19T08:13:11.178Z,1007.38
2023-06-19T08:14:11.214Z,1007.38
2023-06-19T08:15:11.244Z,1007.41
2023-06-19T08:16:11.273Z,1007.45
2023-06-19T08:17:11.416Z,1007.41
2023-06-19T08:18:11.380Z,1007.41
2023-06-19T08:19:11.421Z,1007.37
2023-06-19T08:20:11.446Z,1007.47
2023-06-19T08:21:11.483Z,1007.42
2023-06-19T08:22:11.523Z,1007.42
2023-06-19T08:23:11.567Z,1007.43
2023-06-19T08:24:11.642Z,1007.43
2023-06-19T08:25:11.701Z,1007.43
2023-06-19T08:26:11.737Z,1007.43
2023-06-19T08:27:11.806Z,1007.45
2023-06-19T08:28:11.857Z,1007.42
2023-06-19T08:29:11.894Z,1007.43
2023-06-19T08:30:11.920Z,1007.44
2023-06-19T08:31:11.960Z,1007.48
2023-06-19T08:32:11.985Z,1007.48
2023-06-19T08:33:12.097Z,1007.42
2023-06-19T08:34:12.072Z,1007.42
2023-06-19T08:35:12.117Z,1007.40
2023-06-19T08:36:12.152Z,1007.39
2023-06-19T08:37:12.196Z,1007.40
2023-06-19T08:38:12.251Z,1007.41
2023-06-19T08:39:12.297Z,1007.40
2023-06-19T08:40:12.411Z,1007.40
2023-06-19T08:41:12.458Z,1007.38
2023-06-19T08:42:12.505Z,1007.37
2023-06-19T08:43:12.570Z,1007.39
2023-06-19T08:44:12.588Z,1007.36
2023-06-19T08:45:12.639Z,1007.36
2023-06-19T08:46:12.756Z,1007.35
2023-06-19T08:47:12.782Z,1007.32
2023-06-19T08:48:12.813Z,1007.32
2023-06-19T08:49:12.843Z,1007.31
2023-06-19T08:50:12.877Z,1007.28
2023-06-19T08:51:12.924Z,1007.26
2023-06-19T08:52:12.940Z,1007.27
2023-06-19T08:53:12.997Z,1007.21
2023-06-19T08:54:13.066Z,1007.22
2023-06-19T08:55:13.110Z,1007.24
2023-06-19T08:56:13.116Z,1007.25
2023-06-19T08:57:13.492Z,1007.27
2023-06-19T08:58:13.224Z,1007.22
2023-06-19T08:59:13.265Z,1007.23
2023-06-19T09:00:13.284Z,1007.23
2023-06-19T09:01:13.324Z,1007.24
2023-06-19T09:02:13.419Z,1007.22
2023-06-19T09:03:14.959Z,1007.22
2023-06-19T09:04:13.608Z,1007.26
2023-06-19T09:05:13.550Z,1007.26
2023-06-19T09:06:13.603Z,1007.31
2023-06-19T09:07:13.791Z,1007.34
2023-06-19T09:08:13.704Z,1007.31
2023-06-19T09:09:13.721Z,1007.38
2023-06-19T09:10:13.761Z,1007.32
2023-06-19T09:11:13.782Z,1007.44
2023-06-19T09:12:13.791Z,1007.34
2023-06-19T09:13:13.821Z,1007.43
2023-06-19T09:14:13.937Z,1007.37
2023-06-19T09:15:13.969Z,1007.39
2023-06-19T09:16:14.009Z,1007.37
2023-06-19T09:17:14.064Z,1007.38
2023-06-19T09:18:14.111Z,1007.36
2023-06-19T09:19:14.158Z,1007.37
2023-06-19T09:20:14.183Z,1007.39
2023-06-19T09:21:14.210Z,1007.35
2023-06-19T09:22:14.268Z,1007.36
2023-06-19T09:23:14.337Z,1007.42
2023-06-19T09:24:14.565Z,1007.40
2023-06-19T09:25:14.502Z,1007.41
2023-06-19T09:26:14.533Z,1007.43
2023-06-19T09:27:14.570Z,1007.43
2023-06-19T09:28:14.673Z,1007.47
2023-06-19T09:29:15.846Z,1007.42
2023-06-19T09:30:14.734Z,1007.41
2023-06-19T09:31:14.791Z,1007.39
2023-06-19T09:32:14.795Z,1007.39
2023-06-19T09:33:14.895Z,1007.39
2023-06-19T09:34:14.844Z,1007.40
2023-06-19T09:35:14.888Z,1007.43
2023-06-19T09:36:14.916Z,1007.45
2023-06-19T09:37:14.960Z,1007.44
2023-06-19T09:38:15.017Z,1007.46
2023-06-19T09:39:15.040Z,1007.49
2023-06-19T09:40:15.075Z,1007.52
2023-06-19T09:41:15.109Z,1007.53
2023-06-19T09:42:15.137Z,1007.54
2023-06-19T09:43:15.170Z,1007.53
2023-06-19T09:44:15.195Z,1007.58
2023-06-19T09:45:15.233Z,1007.58
2023-06-19T09:46:15.261Z,1007.55
2023-06-19T09:47:15.372Z,1007.58
2023-06-19T09:48:15.365Z,1007.61
2023-06-19T09:49:15.416Z,1007.61
2023-06-19T09:50:15.432Z,1007.59
2023-06-19T09:51:15.440Z,1007.57
2023-06-19T09:52:15.458Z,1007.54
2023-06-19T09:53:15.499Z,1007.53
2023-06-19T09:54:15.551Z,1007.53
2023-06-19T09:55:15.588Z,1007.46
2023-06-19T09:56:15.608Z,1007.49
2023-06-19T09:57:15.646Z,1007.39
2023-06-19T09:58:15.699Z,1007.38
2023-06-19T09:59:15.731Z,1007.34
2023-06-19T10:00:15.769Z,1007.29
2023-06-19T10:01:15.789Z,1007.28
2023-06-19T10:02:15.861Z,1007.26
2023-06-19T10:03:16.031Z,1007.27
2023-06-19T10:04:15.985Z,1007.20
2023-06-19T10:05:16.218Z,1007.20
2023-06-19T10:06:16.126Z,1007.21
2023-06-19T10:07:16.173Z,1007.19
2023-06-19T10:08:16.223Z,1007.18
2023-06-19T10:09:16.261Z,1007.15
2023-06-19T10:10:16.275Z,1007.13
2023-06-19T10:11:16.312Z,1007.11
2023-06-19T10:12:16.347Z,1007.09
2023-06-19T10:13:16.393Z,1007.12
2023-06-19T10:14:16.410Z,1007.15
2023-06-19T10:15:16.443Z,1007.14
2023-06-19T10:16:16.515Z,1007.17
2023-06-19T10:17:16.525Z,1007.14
2023-06-19T10:18:16.539Z,1007.19
2023-06-19T10:19:16.615Z,1007.15
2023-06-19T10:20:16.599Z,1007.13
2023-06-19T10:21:16.637Z,1007.15
2023-06-19T10:22:16.657Z,1007.07
2023-06-19T10:23:16.705Z,1007.09
2023-06-19T10:24:16.769Z,1007.07
2023-06-19T10:25:16.764Z,1007.03
2023-06-19T10:26:16.774Z,1007.03
2023-06-19T10:27:16.817Z,1007.05
2023-06-19T10:28:16.848Z,1007.04
2023-06-19T10:29:16.877Z,1007.04
2023-06-19T10:30:16.997Z,1007.04
2023-06-19T10:31:16.931Z,1007.02
2023-06-19T10:32:16.957Z,1007.01
2023-06-19T10:33:16.997Z,1007.02
2023-06-19T10:34:17.023Z,1007.01
2023-06-19T10:35:17.056Z,1006.96
2023-06-19T10:36:17.139Z,1006.98
2023-06-19T10:37:17.175Z,1006.93
2023-06-19T10:38:17.200Z,1006.91
2023-06-19T10:39:17.236Z,1006.89
2023-06-19T10:40:17.282Z,1006.91
2023-06-19T10:41:17.298Z,1006.92
2023-06-19T10:42:17.325Z,1006.93
2023-06-19T10:43:17.342Z,1006.92
2023-06-19T10:44:17.376Z,1006.88
2023-06-19T10:45:17.392Z,1006.85
2023-06-19T10:46:17.486Z,1006.86
2023-06-19T10:47:17.534Z,1006.81
2023-06-19T10:48:17.560Z,1006.77
2023-06-19T10:49:17.563Z,1006.83
2023-06-19T10:50:17.655Z,1006.79
2023-06-19T10:51:17.638Z,1006.75
2023-06-19T10:52:17.641Z,1006.73
2023-06-19T10:53:17.681Z,1006.72
2023-06-19T10:54:17.674Z,1006.67
2023-06-19T10:55:17.693Z,1006.60
2023-06-19T10:56:17.711Z,1006.58
2023-06-19T10:57:17.717Z,1006.58
2023-06-19T10:58:17.748Z,1006.53
2023-06-19T10:59:17.744Z,1006.51
2023-06-19T11:00:17.764Z,1006.49
2023-06-19T11:01:17.759Z,1006.50
2023-06-19T11:02:17.825Z,1006.46
2023-06-19T11:03:17.945Z,1006.49
2023-06-19T11:04:17.863Z,1006.50
2023-06-19T11:05:17.865Z,1006.41
2023-06-19T11:06:17.882Z,1006.44
2023-06-19T11:07:17.872Z,1006.51
2023-06-19T11:08:17.894Z,1006.49
2023-06-19T11:09:17.909Z,1006.54
2023-06-19T11:10:17.933Z,1006.54
2023-06-19T11:11:17.924Z,1006.59
2023-06-19T11:12:17.948Z,1006.55
2023-06-19T11:13:18.004Z,1006.57
2023-06-19T11:14:18.247Z,1006.55
2023-06-19T11:15:18.080Z,1006.55
2023-06-19T11:16:18.118Z,1006.49
2023-06-19T11:17:18.140Z,1006.50
2023-06-19T11:18:18.187Z,1006.48
2023-06-19T11:19:18.214Z,1006.54
2023-06-19T11:20:18.262Z,1006.59
2023-06-19T11:21:18.285Z,1006.58
2023-06-19T11:22:18.334Z,1006.54
2023-06-19T11:23:18.420Z,1006.55
2023-06-19T11:24:18.542Z,1006.57
2023-06-19T11:25:18.452Z,1006.53
2023-06-19T11:26:18.476Z,1006.54
2023-06-19T11:27:18.479Z,1006.59
2023-06-19T11:28:18.523Z,1006.56
2023-06-19T11:29:18.542Z,1006.57
2023-06-19T11:30:18.585Z,1006.57
2023-06-19T11:31:18.665Z,1006.60
2023-06-19T11:32:18.690Z,1006.58
2023-06-19T11:33:18.743Z,1006.62
2023-06-19T11:34:19.643Z,1006.52
2023-06-19T11:35:18.850Z,1006.58
2023-06-19T11:36:18.863Z,1006.60
2023-06-19T11:37:18.903Z,1006.65
2023-06-19T11:38:18.931Z,1006.70
2023-06-19T11:39:19.136Z,1006.64
2023-06-19T11:40:18.984Z,1006.65
2023-06-19T11:41:18.993Z,1006.68
2023-06-19T11:42:19.020Z,1006.67
2023-06-19T11:43:19.045Z,1006.68
2023-06-19T11:44:19.062Z,1006.67
2023-06-19T11:45:19.076Z,1006.70
2023-06-19T11:46:19.172Z,1006.71
2023-06-19T11:47:19.144Z,1006.70
2023-06-19T11:48:19.189Z,1006.72
2023-06-19T11:49:19.249Z,1006.76
2023-06-19T11:50:19.281Z,1006.74
2023-06-19T11:51:19.309Z,1006.74
2023-06-19T11:52:19.306Z,1006.73
2023-06-19T11:53:19.320Z,1006.73
2023-06-19T11:54:19.331Z,1006.70
2023-06-19T11:55:19.319Z,1006.68
2023-06-19T11:56:19.319Z,1006.66
2023-06-19T11:57:19.324Z,1006.64
2023-06-19T11:58:19.354Z,1006.64
2023-06-19T11:59:19.351Z,1006.66
2023-06-19T12:00:19.339Z,1006.69
2023-06-19T12:01:19.333Z,1006.67
2023-06-19T12:02:19.474Z,1006.68
2023-06-19T12:03:19.591Z,1006.62
2023-06-19T12:04:19.687Z,1006.66
2023-06-19T12:05:19.453Z,1006.61
2023-06-19T12:06:19.438Z,1006.66